createdAt,value
2018-03-28T00:01:14.329Z,18.59
2018-03-28T00:07:05.263Z,17.78
2018-03-28T00:12:56.106Z,18.95
2018-03-28T00:18:46.921Z,16.29
2018-03-28T00:24:37.815Z,15.32
2018-03-28T00:30:28.679Z,16.46
2018-03-28T00:36:19.595Z,17.35
2018-03-28T00:42:10.374Z,19.46
2018-03-28T00:48:01.243Z,16.46
2018-03-28T00:53:52.150Z,19.97
2018-03-28T00:59:42.993Z,16.64
2018-03-28T01:05:33.858Z,21.05
2018-03-28T01:11:24.688Z,18.37
2018-03-28T01:17:15.556Z,22.67
2018-03-28T01:23:06.400Z,19.94
2018-03-28T01:28:57.287Z,19.11
2018-03-28T01:34:48.145Z,21.02
2018-03-28T01:40:39.014Z,18.89
2018-03-28T01:46:29.853Z,20.03
2018-03-28T01:52:20.696Z,17.51
2018-03-28T01:58:11.590Z,20.05
2018-03-28T02:04:02.464Z,18.36
2018-03-28T02:09:53.290Z,19.36
2018-03-28T02:15:44.156Z,20.02
2018-03-28T02:21:34.992Z,17.04
2018-03-28T02:27:25.892Z,19.35
2018-03-28T02:33:16.729Z,16.64
2018-03-28T02:39:07.592Z,19.8
2018-03-28T02:44:58.448Z,18.39
2018-03-28T02:50:49.324Z,17.45
2018-03-28T02:56:40.183Z,21.56
2018-03-28T03:02:31.032Z,19.27
2018-03-28T03:08:21.933Z,19.11
2018-03-28T03:14:12.761Z,18.7
2018-03-28T03:20:03.625Z,15.77
2018-03-28T03:25:54.475Z,21.27
2018-03-28T03:31:45.351Z,23.29
2018-03-28T03:37:36.264Z,26.05
2018-03-28T03:43:27.034Z,18.89
2018-03-28T03:49:17.912Z,21.52
2018-03-28T03:55:08.784Z,27.49
2018-03-28T04:00:59.657Z,19.14
2018-03-28T04:06:50.509Z,22.1
2018-03-28T04:12:41.340Z,20.64
2018-03-28T04:18:32.218Z,21.64
2018-03-28T04:24:23.087Z,18.61
2018-03-28T04:30:13.916Z,20.82
2018-03-28T04:36:04.806Z,25.3
2018-03-28T04:41:55.649Z,18.53
2018-03-28T04:47:46.487Z,15.86
2018-03-28T04:53:37.409Z,17.16
2018-03-28T04:59:28.226Z,13.25
2018-03-28T05:05:19.083Z,19.04
2018-03-28T05:11:09.964Z,27.95
2018-03-28T05:17:00.838Z,76.41
2018-03-28T05:22:51.660Z,169.15
2018-03-28T05:28:42.539Z,171.47
2018-03-28T05:34:33.369Z,230.7
2018-03-28T05:40:24.220Z,301.06
2018-03-28T05:46:15.075Z,316.33
2018-03-28T05:52:05.955Z,335.75
2018-03-28T05:57:56.786Z,391.52
2018-03-28T06:03:47.681Z,385.89
2018-03-28T06:09:38.486Z,416.6
2018-03-28T06:15:29.358Z,375.38
2018-03-28T06:21:20.442Z,360.04
2018-03-28T06:27:11.252Z,273.26
2018-03-28T06:33:02.154Z,245.77
2018-03-28T06:38:52.978Z,277.92
2018-03-28T06:44:43.837Z,239.45
2018-03-28T06:50:34.684Z,195.1
2018-03-28T06:56:25.703Z,192.59
2018-03-28T07:02:16.477Z,197.15
2018-03-28T07:08:07.278Z,176.82
2018-03-28T07:13:58.143Z,157.07
2018-03-28T07:19:48.994Z,138.4
2018-03-28T07:25:39.865Z,137.67
2018-03-28T07:31:30.728Z,144.46
2018-03-28T07:37:21.574Z,121.41
2018-03-28T07:43:12.413Z,117.69
2018-03-28T07:49:03.273Z,104.88
2018-03-28T07:54:54.140Z,115.59
2018-03-28T08:00:45.209Z,115.16
2018-03-28T08:06:36.048Z,101.86
2018-03-28T08:12:26.877Z,94.39
2018-03-28T08:18:17.769Z,83.29
2018-03-28T08:24:08.625Z,75.28
2018-03-28T08:29:59.438Z,85.15
2018-03-28T08:35:50.325Z,75.42
2018-03-28T08:41:41.179Z,75.41
2018-03-28T08:47:32.038Z,67.84
2018-03-28T08:53:22.964Z,69.8
2018-03-28T08:59:13.780Z,72.96
2018-03-28T09:05:04.597Z,66.81
2018-03-28T09:10:55.531Z,63.14
2018-03-28T09:16:46.311Z,71.6
2018-03-28T09:22:37.267Z,55.19
2018-03-28T09:28:28.074Z,53.28
2018-03-28T09:34:18.947Z,52.04
2018-03-28T09:40:09.782Z,48.5
2018-03-28T09:46:00.705Z,47.29
2018-03-28T09:51:51.544Z,42.07
2018-03-28T09:57:42.383Z,44.66
2018-03-28T10:03:33.280Z,36
2018-03-28T10:09:24.180Z,34.47
2018-03-28T10:15:14.973Z,31.96
2018-03-28T10:21:05.933Z,33.48
2018-03-28T10:26:56.697Z,29.34
2018-03-28T10:32:47.631Z,33.46
2018-03-28T10:38:38.483Z,31.21
2018-03-28T10:44:29.342Z,29.86
2018-03-28T10:50:20.205Z,29.96
2018-03-28T10:56:11.072Z,31.63
2018-03-28T11:02:01.968Z,32.97
2018-03-28T11:07:52.811Z,39.34
2018-03-28T11:13:43.720Z,33.64
2018-03-28T11:19:34.674Z,40.71
2018-03-28T11:25:25.504Z,34.1
2018-03-28T11:31:16.316Z,46.94
2018-03-28T11:37:07.190Z,33.44
2018-03-28T11:42:58.092Z,35.3
2018-03-28T11:48:49.643Z,32.91
2018-03-28T11:54:39.881Z,32.12
2018-03-28T12:00:30.705Z,36.63
2018-03-28T12:06:21.620Z,31.48
2018-03-28T12:12:12.497Z,32.76
2018-03-28T12:18:03.342Z,28.44
2018-03-28T12:23:54.261Z,28.26
2018-03-28T12:29:45.116Z,30.69
2018-03-28T12:35:36.000Z,32.59
2018-03-28T12:41:26.888Z,22.29
2018-03-28T12:47:17.806Z,18.95
2018-03-28T12:53:08.692Z,21
2018-03-28T12:58:59.481Z,22.1
2018-03-28T13:04:50.385Z,21.86
2018-03-28T13:10:41.220Z,23.71
2018-03-28T13:16:32.100Z,18.39
2018-03-28T13:22:23.020Z,22.54
2018-03-28T13:28:13.890Z,21.07
2018-03-28T13:34:04.836Z,18.77
2018-03-28T13:39:55.642Z,19.5
2018-03-28T13:45:46.571Z,18.66
2018-03-28T13:51:37.457Z,17.95
2018-03-28T13:57:28.301Z,77.57
2018-03-28T14:03:19.161Z,99.79
2018-03-28T14:09:10.059Z,121.77
2018-03-28T14:15:00.937Z,106.29
2018-03-28T14:20:51.826Z,103.78
2018-03-28T14:26:42.716Z,91
2018-03-28T14:32:33.584Z,65.52
2018-03-28T14:38:24.481Z,40.73
2018-03-28T14:44:15.311Z,29.11
2018-03-28T14:50:06.234Z,31.21
2018-03-28T14:55:57.074Z,34.31
2018-03-28T15:01:47.934Z,59.74
2018-03-28T15:07:38.862Z,62.5
2018-03-28T15:13:29.703Z,62.07
2018-03-28T15:19:20.614Z,60.53
2018-03-28T15:25:11.473Z,63.08
2018-03-28T15:31:02.360Z,55.96
2018-03-28T15:36:53.250Z,64.21
2018-03-28T15:42:44.137Z,64.08
2018-03-28T15:48:34.979Z,77.78
2018-03-28T15:54:25.885Z,71.31
2018-03-28T16:00:16.741Z,95.1
2018-03-28T16:06:07.685Z,90.85
2018-03-28T16:11:58.563Z,83.87
2018-03-28T16:17:49.391Z,61.78
2018-03-28T16:23:40.293Z,47.69
2018-03-28T16:29:31.151Z,30.98
2018-03-28T16:35:22.018Z,28.38
2018-03-28T16:41:12.886Z,22.7
2018-03-28T16:47:03.775Z,18.14
2018-03-28T16:52:54.618Z,14.57
2018-03-28T16:58:45.502Z,16.13
2018-03-28T17:04:36.389Z,12.85
2018-03-28T17:10:27.262Z,18.69
2018-03-28T17:16:18.238Z,17.84
2018-03-28T17:22:08.982Z,14.52
2018-03-28T17:27:59.857Z,13.74
2018-03-28T17:33:50.726Z,13.06
2018-03-28T17:39:41.653Z,13.78
2018-03-28T17:45:32.496Z,15.42
2018-03-28T17:51:23.355Z,14.89
2018-03-28T17:57:14.235Z,13.23
2018-03-28T18:03:05.074Z,13.87
2018-03-28T18:08:55.993Z,13.45
2018-03-28T18:14:46.824Z,14.62
2018-03-28T18:20:37.713Z,10.08
2018-03-28T18:26:28.547Z,12.96
2018-03-28T18:32:19.436Z,10.43
2018-03-28T18:38:10.316Z,19.1
2018-03-28T18:44:01.183Z,14.71
2018-03-28T18:49:52.047Z,11.76
2018-03-28T18:55:42.895Z,15.23
2018-03-28T19:01:33.838Z,10.97
2018-03-28T19:07:24.632Z,14.55
2018-03-28T19:13:15.521Z,18.37
2018-03-28T19:19:06.392Z,14.81
2018-03-28T19:24:57.239Z,12.53
2018-03-28T19:30:48.172Z,13.08
2018-03-28T19:36:39.004Z,14.62
2018-03-28T19:42:29.827Z,9.77
2018-03-28T19:48:20.740Z,19
2018-03-28T19:54:11.575Z,22.28
2018-03-28T20:00:02.501Z,18.26
2018-03-28T20:05:53.312Z,15.23
2018-03-28T20:11:44.211Z,21.07
2018-03-28T20:17:35.070Z,15.89
2018-03-28T20:23:25.931Z,20.04
2018-03-28T20:29:16.775Z,14.07
2018-03-28T20:35:07.652Z,17.24
2018-03-28T20:40:58.572Z,12.13
2018-03-28T20:46:49.427Z,12.61
2018-03-28T20:52:40.260Z,14.29
2018-03-28T20:58:31.154Z,18.14
2018-03-28T21:04:21.971Z,12.49
2018-03-28T21:10:12.831Z,14.41
2018-03-28T21:16:03.696Z,11.57
2018-03-28T21:21:54.591Z,11.38
2018-03-28T21:27:45.428Z,13.39
2018-03-28T21:33:36.303Z,14.77
2018-03-28T21:39:27.177Z,19.46
2018-03-28T21:45:18.052Z,15.55
2018-03-28T21:51:08.962Z,12.6
2018-03-28T21:56:59.814Z,11.13
2018-03-28T22:02:50.653Z,11.08
2018-03-28T22:08:41.464Z,11.02
2018-03-28T22:14:32.384Z,15.07
2018-03-28T22:20:23.275Z,15.2
2018-03-28T22:26:14.091Z,10.18
2018-03-28T22:32:04.996Z,7.17
2018-03-28T22:37:55.879Z,8.82
2018-03-28T22:43:46.681Z,10.92
2018-03-28T22:49:37.561Z,14.36
2018-03-28T22:55:28.430Z,8.75
2018-03-28T23:01:19.356Z,8.57
2018-03-28T23:07:10.143Z,10.93
2018-03-28T23:13:01.037Z,11.68
2018-03-28T23:18:51.913Z,9.82
2018-03-28T23:24:42.753Z,13.88
2018-03-28T23:30:33.617Z,10.83
2018-03-28T23:36:24.508Z,12.19
2018-03-28T23:42:15.436Z,11.88
2018-03-28T23:48:06.213Z,12.79
2018-03-28T23:53:57.065Z,15.67
2018-03-28T23:59:47.983Z,10.57
